sensor_id;sensor_type;location;lat;lon;timestamp;temperature;humidity
63537;DHT22;49686;51.880;5.632;2022-07-10T00:01:12;12.80;99.90
63537;DHT22;49686;51.880;5.632;2022-07-10T00:03:39;12.80;99.90
63537;DHT22;49686;51.880;5.632;2022-07-10T00:06:07;12.80;99.90
63537;DHT22;49686;51.880;5.632;2022-07-10T00:08:33;12.80;99.90
63537;DHT22;49686;51.880;5.632;2022-07-10T00:11:00;12.80;99.90
63537;DHT22;49686;51.880;5.632;2022-07-10T00:13:29;12.80;99.90
63537;DHT22;49686;51.880;5.632;2022-07-10T00:15:56;12.70;99.90
63537;DHT22;49686;51.880;5.632;2022-07-10T00:18:23;12.70;99.90
63537;DHT22;49686;51.880;5.632;2022-07-10T00:20:50;12.70;99.90
63537;DHT22;49686;51.880;5.632;2022-07-10T00:23:17;12.60;99.90
63537;DHT22;49686;51.880;5.632;2022-07-10T00:25:44;12.60;99.90
63537;DHT22;49686;51.880;5.632;2022-07-10T00:28:11;12.50;99.90
63537;DHT22;49686;51.880;5.632;2022-07-10T00:30:39;12.40;99.90
63537;DHT22;49686;51.880;5.632;2022-07-10T00:33:06;12.30;99.90
63537;DHT22;49686;51.880;5.632;2022-07-10T00:35:34;12.20;99.90
63537;DHT22;49686;51.880;5.632;2022-07-10T00:38:00;12.10;99.90
63537;DHT22;49686;51.880;5.632;2022-07-10T00:40:27;12.00;99.90
63537;DHT22;49686;51.880;5.632;2022-07-10T00:42:55;11.90;99.90
63537;DHT22;49686;51.880;5.632;2022-07-10T00:45:21;11.80;99.90
63537;DHT22;49686;51.880;5.632;2022-07-10T00:47:50;11.70;99.90
63537;DHT22;49686;51.880;5.632;2022-07-10T00:50:17;11.60;99.90
63537;DHT22;49686;51.880;5.632;2022-07-10T00:52:44;11.50;99.90
63537;DHT22;49686;51.880;5.632;2022-07-10T00:55:13;11.40;99.90
63537;DHT22;49686;51.880;5.632;2022-07-10T00:57:41;11.30;99.90
63537;DHT22;49686;51.880;5.632;2022-07-10T01:00:09;11.30;99.90
63537;DHT22;49686;51.880;5.632;2022-07-10T01:02:36;11.20;99.90
63537;DHT22;49686;51.880;5.632;2022-07-10T01:05:05;11.20;99.90
63537;DHT22;49686;51.880;5.632;2022-07-10T01:07:32;11.20;99.90
63537;DHT22;49686;51.880;5.632;2022-07-10T01:09:59;11.20;99.90
63537;DHT22;49686;51.880;5.632;2022-07-10T01:12:27;11.20;99.90
63537;DHT22;49686;51.880;5.632;2022-07-10T01:14:54;11.30;99.90
63537;DHT22;49686;51.880;5.632;2022-07-10T01:17:21;11.30;99.90
63537;DHT22;49686;51.880;5.632;2022-07-10T01:19:49;11.40;99.90
63537;DHT22;49686;51.880;5.632;2022-07-10T01:22:17;11.40;99.90
63537;DHT22;49686;51.880;5.632;2022-07-10T01:24:44;11.50;99.90
63537;DHT22;49686;51.880;5.632;2022-07-10T01:27:12;11.60;99.90
63537;DHT22;49686;51.880;5.632;2022-07-10T01:29:39;11.70;99.90
63537;DHT22;49686;51.880;5.632;2022-07-10T01:32:06;11.80;99.90
63537;DHT22;49686;51.880;5.632;2022-07-10T01:34:34;11.80;99.90
63537;DHT22;49686;51.880;5.632;2022-07-10T01:37:01;11.90;99.90
63537;DHT22;49686;51.880;5.632;2022-07-10T01:39:29;11.90;99.90
63537;DHT22;49686;51.880;5.632;2022-07-10T01:41:56;11.90;99.90
63537;DHT22;49686;51.880;5.632;2022-07-10T01:44:23;12.00;99.90
63537;DHT22;49686;51.880;5.632;2022-07-10T01:46:50;12.00;99.90
63537;DHT22;49686;51.880;5.632;2022-07-10T01:49:17;12.00;99.90
63537;DHT22;49686;51.880;5.632;2022-07-10T01:51:44;12.00;99.90
63537;DHT22;49686;51.880;5.632;2022-07-10T01:54:11;12.00;99.90
63537;DHT22;49686;51.880;5.632;2022-07-10T01:56:40;12.00;99.90
63537;DHT22;49686;51.880;5.632;2022-07-10T01:59:07;12.00;99.90
63537;DHT22;49686;51.880;5.632;2022-07-10T02:01:34;12.00;99.90
63537;DHT22;49686;51.880;5.632;2022-07-10T02:04:01;11.90;99.90
63537;DHT22;49686;51.880;5.632;2022-07-10T02:06:28;11.80;99.90
63537;DHT22;49686;51.880;5.632;2022-07-10T02:08:55;11.80;99.90
63537;DHT22;49686;51.880;5.632;2022-07-10T02:11:23;11.70;99.90
63537;DHT22;49686;51.880;5.632;2022-07-10T02:13:51;11.60;99.90
63537;DHT22;49686;51.880;5.632;2022-07-10T02:16:18;11.60;99.90
63537;DHT22;49686;51.880;5.632;2022-07-10T02:18:45;11.50;99.90
63537;DHT22;49686;51.880;5.632;2022-07-10T02:21:12;11.50;99.90
63537;DHT22;49686;51.880;5.632;2022-07-10T02:23:39;11.50;99.90
63537;DHT22;49686;51.880;5.632;2022-07-10T02:26:07;11.50;99.90
63537;DHT22;49686;51.880;5.632;2022-07-10T02:28:34;11.50;99.90
63537;DHT22;49686;51.880;5.632;2022-07-10T02:31:02;11.60;99.90
63537;DHT22;49686;51.880;5.632;2022-07-10T02:33:30;11.60;99.90
63537;DHT22;49686;51.880;5.632;2022-07-10T02:35:57;11.70;99.90
63537;DHT22;49686;51.880;5.632;2022-07-10T02:38:23;11.70;99.90
63537;DHT22;49686;51.880;5.632;2022-07-10T02:40:51;11.80;99.90
63537;DHT22;49686;51.880;5.632;2022-07-10T02:43:18;11.80;99.90
63537;DHT22;49686;51.880;5.632;2022-07-10T02:45:44;11.90;99.90
63537;DHT22;49686;51.880;5.632;2022-07-10T02:48:15;11.90;99.90
63537;DHT22;49686;51.880;5.632;2022-07-10T02:50:42;11.90;99.90
63537;DHT22;49686;51.880;5.632;2022-07-10T02:53:09;11.90;99.90
63537;DHT22;49686;51.880;5.632;2022-07-10T02:55:37;11.90;99.90
63537;DHT22;49686;51.880;5.632;2022-07-10T02:58:04;11.90;99.90
63537;DHT22;49686;51.880;5.632;2022-07-10T03:00:31;11.90;99.90
63537;DHT22;49686;51.880;5.632;2022-07-10T03:02:58;11.90;99.90
63537;DHT22;49686;51.880;5.632;2022-07-10T03:05:26;11.90;99.90
63537;DHT22;49686;51.880;5.632;2022-07-10T03:07:53;12.00;99.90
63537;DHT22;49686;51.880;5.632;2022-07-10T03:10:21;11.90;99.90
63537;DHT22;49686;51.880;5.632;2022-07-10T03:12:47;12.00;99.90
63537;DHT22;49686;51.880;5.632;2022-07-10T03:15:14;12.10;99.90
63537;DHT22;49686;51.880;5.632;2022-07-10T03:17:42;12.10;99.90
63537;DHT22;49686;51.880;5.632;2022-07-10T03:20:09;12.10;99.90
63537;DHT22;49686;51.880;5.632;2022-07-10T03:22:38;12.10;99.90
63537;DHT22;49686;51.880;5.632;2022-07-10T03:25:06;12.10;99.90
63537;DHT22;49686;51.880;5.632;2022-07-10T03:27:33;12.00;99.90
63537;DHT22;49686;51.880;5.632;2022-07-10T03:30:00;12.00;99.90
63537;DHT22;49686;51.880;5.632;2022-07-10T03:32:27;11.90;99.90
63537;DHT22;49686;51.880;5.632;2022-07-10T03:34:54;12.00;99.90
63537;DHT22;49686;51.880;5.632;2022-07-10T03:37:21;12.00;99.90
63537;DHT22;49686;51.880;5.632;2022-07-10T03:39:50;12.00;99.90
63537;DHT22;49686;51.880;5.632;2022-07-10T03:42:17;12.10;99.90
63537;DHT22;49686;51.880;5.632;2022-07-10T03:44:44;12.10;99.90
63537;DHT22;49686;51.880;5.632;2022-07-10T03:47:11;12.20;99.90
63537;DHT22;49686;51.880;5.632;2022-07-10T03:49:38;12.20;99.90
63537;DHT22;49686;51.880;5.632;2022-07-10T03:52:05;12.30;99.90
63537;DHT22;49686;51.880;5.632;2022-07-10T03:54:33;12.30;99.90
63537;DHT22;49686;51.880;5.632;2022-07-10T03:57:02;12.30;99.90
63537;DHT22;49686;51.880;5.632;2022-07-10T03:59:29;12.30;99.90
63537;DHT22;49686;51.880;5.632;2022-07-10T04:01:56;12.30;99.90
63537;DHT22;49686;51.880;5.632;2022-07-10T04:04:23;12.30;99.90
63537;DHT22;49686;51.880;5.632;2022-07-10T04:06:50;12.30;99.90
63537;DHT22;49686;51.880;5.632;2022-07-10T04:09:17;12.30;99.90
63537;DHT22;49686;51.880;5.632;2022-07-10T04:11:44;12.30;99.90
63537;DHT22;49686;51.880;5.632;2022-07-10T04:14:12;12.30;99.90
63537;DHT22;49686;51.880;5.632;2022-07-10T04:16:40;12.30;99.90
63537;DHT22;49686;51.880;5.632;2022-07-10T04:19:07;12.40;99.90
63537;DHT22;49686;51.880;5.632;2022-07-10T04:21:34;12.40;99.90
63537;DHT22;49686;51.880;5.632;2022-07-10T04:24:01;12.50;99.90
63537;DHT22;49686;51.880;5.632;2022-07-10T04:26:32;12.50;99.90
63537;DHT22;49686;51.880;5.632;2022-07-10T04:29:00;12.50;99.90
63537;DHT22;49686;51.880;5.632;2022-07-10T04:31:28;12.60;99.90
63537;DHT22;49686;51.880;5.632;2022-07-10T04:33:55;12.50;99.90
63537;DHT22;49686;51.880;5.632;2022-07-10T04:36:23;12.50;99.90
63537;DHT22;49686;51.880;5.632;2022-07-10T04:38:49;12.50;99.90
63537;DHT22;49686;51.880;5.632;2022-07-10T04:41:16;12.50;99.90
63537;DHT22;49686;51.880;5.632;2022-07-10T04:43:44;12.50;99.90
63537;DHT22;49686;51.880;5.632;2022-07-10T04:46:11;12.50;99.90
63537;DHT22;49686;51.880;5.632;2022-07-10T04:48:39;12.60;99.90
63537;DHT22;49686;51.880;5.632;2022-07-10T04:51:07;12.70;99.90
63537;DHT22;49686;51.880;5.632;2022-07-10T04:53:34;12.70;99.90
63537;DHT22;49686;51.880;5.632;2022-07-10T04:56:01;12.80;99.90
63537;DHT22;49686;51.880;5.632;2022-07-10T04:58:28;12.90;99.90
63537;DHT22;49686;51.880;5.632;2022-07-10T05:00:55;12.90;99.90
63537;DHT22;49686;51.880;5.632;2022-07-10T05:03:22;13.00;99.90
63537;DHT22;49686;51.880;5.632;2022-07-10T05:05:50;13.00;99.90
63537;DHT22;49686;51.880;5.632;2022-07-10T05:08:17;13.00;99.90
63537;DHT22;49686;51.880;5.632;2022-07-10T05:10:44;13.00;99.90
63537;DHT22;49686;51.880;5.632;2022-07-10T05:13:13;13.10;99.90
63537;DHT22;49686;51.880;5.632;2022-07-10T05:15:39;13.10;99.90
63537;DHT22;49686;51.880;5.632;2022-07-10T05:18:06;13.20;99.90
63537;DHT22;49686;51.880;5.632;2022-07-10T05:20:34;13.10;99.90
63537;DHT22;49686;51.880;5.632;2022-07-10T05:23:02;13.10;99.90
63537;DHT22;49686;51.880;5.632;2022-07-10T05:25:29;13.10;99.90
63537;DHT22;49686;51.880;5.632;2022-07-10T05:27:56;13.30;99.90
63537;DHT22;49686;51.880;5.632;2022-07-10T05:30:23;13.70;99.90
63537;DHT22;49686;51.880;5.632;2022-07-10T05:32:50;14.20;99.90
63537;DHT22;49686;51.880;5.632;2022-07-10T05:35:18;14.30;99.90
63537;DHT22;49686;51.880;5.632;2022-07-10T05:37:45;14.30;99.90
63537;DHT22;49686;51.880;5.632;2022-07-10T05:40:13;14.20;99.90
63537;DHT22;49686;51.880;5.632;2022-07-10T05:42:40;14.20;99.90
63537;DHT22;49686;51.880;5.632;2022-07-10T05:45:08;14.40;99.90
63537;DHT22;49686;51.880;5.632;2022-07-10T05:47:35;15.20;99.90
63537;DHT22;49686;51.880;5.632;2022-07-10T05:50:02;15.90;99.90
63537;DHT22;49686;51.880;5.632;2022-07-10T05:52:29;16.20;99.90
63537;DHT22;49686;51.880;5.632;2022-07-10T05:54:57;16.20;99.90
63537;DHT22;49686;51.880;5.632;2022-07-10T05:57:25;15.50;99.90
63537;DHT22;49686;51.880;5.632;2022-07-10T05:59:52;15.00;99.90
63537;DHT22;49686;51.880;5.632;2022-07-10T06:02:19;14.70;99.90
63537;DHT22;49686;51.880;5.632;2022-07-10T06:04:51;14.60;99.90
63537;DHT22;49686;51.880;5.632;2022-07-10T06:07:18;14.50;99.90
63537;DHT22;49686;51.880;5.632;2022-07-10T06:09:45;14.40;99.90
63537;DHT22;49686;51.880;5.632;2022-07-10T06:12:13;14.40;99.90
63537;DHT22;49686;51.880;5.632;2022-07-10T06:14:41;14.40;99.90
63537;DHT22;49686;51.880;5.632;2022-07-10T06:17:08;14.50;99.90
63537;DHT22;49686;51.880;5.632;2022-07-10T06:19:35;14.60;99.90
63537;DHT22;49686;51.880;5.632;2022-07-10T06:22:03;14.50;99.90
63537;DHT22;49686;51.880;5.632;2022-07-10T06:24:30;14.40;99.90
63537;DHT22;49686;51.880;5.632;2022-07-10T06:26:57;14.40;99.90
63537;DHT22;49686;51.880;5.632;2022-07-10T06:29:24;14.30;99.90
63537;DHT22;49686;51.880;5.632;2022-07-10T06:31:52;14.30;99.90
63537;DHT22;49686;51.880;5.632;2022-07-10T06:34:19;14.30;99.90
63537;DHT22;49686;51.880;5.632;2022-07-10T06:36:46;14.40;99.90
63537;DHT22;49686;51.880;5.632;2022-07-10T06:39:13;14.40;99.90
63537;DHT22;49686;51.880;5.632;2022-07-10T06:41:41;14.40;99.90
63537;DHT22;49686;51.880;5.632;2022-07-10T06:44:07;14.50;99.90
63537;DHT22;49686;51.880;5.632;2022-07-10T06:46:34;14.50;99.90
63537;DHT22;49686;51.880;5.632;2022-07-10T06:49:03;14.60;99.90
63537;DHT22;49686;51.880;5.632;2022-07-10T06:51:31;14.80;99.90
63537;DHT22;49686;51.880;5.632;2022-07-10T06:53:58;14.80;99.90
63537;DHT22;49686;51.880;5.632;2022-07-10T06:56:25;14.80;99.90
63537;DHT22;49686;51.880;5.632;2022-07-10T06:58:52;14.90;99.90
63537;DHT22;49686;51.880;5.632;2022-07-10T07:01:20;14.80;99.90
63537;DHT22;49686;51.880;5.632;2022-07-10T07:03:48;14.70;99.90
63537;DHT22;49686;51.880;5.632;2022-07-10T07:06:16;14.80;99.90
63537;DHT22;49686;51.880;5.632;2022-07-10T07:08:43;14.80;99.90
63537;DHT22;49686;51.880;5.632;2022-07-10T07:11:10;14.80;99.90
63537;DHT22;49686;51.880;5.632;2022-07-10T07:13:37;14.80;99.90
63537;DHT22;49686;51.880;5.632;2022-07-10T07:16:04;14.80;99.90
63537;DHT22;49686;51.880;5.632;2022-07-10T07:18:32;14.80;99.90
63537;DHT22;49686;51.880;5.632;2022-07-10T07:20:59;14.80;99.90
63537;DHT22;49686;51.880;5.632;2022-07-10T07:23:27;14.70;99.90
63537;DHT22;49686;51.880;5.632;2022-07-10T07:25:55;14.60;99.90
63537;DHT22;49686;51.880;5.632;2022-07-10T07:28:22;14.60;99.90
63537;DHT22;49686;51.880;5.632;2022-07-10T07:30:49;14.70;99.90
63537;DHT22;49686;51.880;5.632;2022-07-10T07:33:16;14.90;99.90
63537;DHT22;49686;51.880;5.632;2022-07-10T07:35:43;15.00;99.90
63537;DHT22;49686;51.880;5.632;2022-07-10T07:38:10;14.90;99.90
63537;DHT22;49686;51.880;5.632;2022-07-10T07:40:39;14.80;99.90
63537;DHT22;49686;51.880;5.632;2022-07-10T07:43:06;14.80;99.90
63537;DHT22;49686;51.880;5.632;2022-07-10T07:45:33;14.90;99.90
63537;DHT22;49686;51.880;5.632;2022-07-10T07:48:01;14.90;99.90
63537;DHT22;49686;51.880;5.632;2022-07-10T07:50:29;14.90;99.90
63537;DHT22;49686;51.880;5.632;2022-07-10T07:52:56;15.00;99.90
63537;DHT22;49686;51.880;5.632;2022-07-10T07:55:24;15.20;99.90
63537;DHT22;49686;51.880;5.632;2022-07-10T07:57:53;15.40;99.90
63537;DHT22;49686;51.880;5.632;2022-07-10T08:00:22;15.50;99.90
63537;DHT22;49686;51.880;5.632;2022-07-10T08:02:49;15.80;99.90
63537;DHT22;49686;51.880;5.632;2022-07-10T08:05:17;16.10;99.90
63537;DHT22;49686;51.880;5.632;2022-07-10T08:07:46;16.50;99.90
63537;DHT22;49686;51.880;5.632;2022-07-10T08:10:17;16.90;99.90
63537;DHT22;49686;51.880;5.632;2022-07-10T08:12:45;17.80;99.90
63537;DHT22;49686;51.880;5.632;2022-07-10T08:15:15;18.10;99.90
63537;DHT22;49686;51.880;5.632;2022-07-10T08:17:43;18.20;99.90
63537;DHT22;49686;51.880;5.632;2022-07-10T08:20:12;18.10;99.90
63537;DHT22;49686;51.880;5.632;2022-07-10T08:22:39;17.60;99.90
63537;DHT22;49686;51.880;5.632;2022-07-10T08:25:07;17.20;99.90
63537;DHT22;49686;51.880;5.632;2022-07-10T08:27:34;17.10;99.90
63537;DHT22;49686;51.880;5.632;2022-07-10T08:30:01;17.10;99.90
63537;DHT22;49686;51.880;5.632;2022-07-10T08:32:29;17.10;99.90
63537;DHT22;49686;51.880;5.632;2022-07-10T08:34:56;17.30;99.90
63537;DHT22;49686;51.880;5.632;2022-07-10T08:37:23;17.40;99.90
63537;DHT22;49686;51.880;5.632;2022-07-10T08:39:51;17.50;99.90
63537;DHT22;49686;51.880;5.632;2022-07-10T08:42:18;17.60;99.90
63537;DHT22;49686;51.880;5.632;2022-07-10T08:44:45;17.80;99.90
63537;DHT22;49686;51.880;5.632;2022-07-10T08:47:12;17.70;99.90
63537;DHT22;49686;51.880;5.632;2022-07-10T08:49:46;17.30;99.90
63537;DHT22;49686;51.880;5.632;2022-07-10T08:52:26;16.90;99.90
63537;DHT22;49686;51.880;5.632;2022-07-10T08:54:53;16.60;99.90
63537;DHT22;49686;51.880;5.632;2022-07-10T08:57:22;16.50;99.90
63537;DHT22;49686;51.880;5.632;2022-07-10T08:59:49;16.20;99.90
63537;DHT22;49686;51.880;5.632;2022-07-10T09:02:16;15.90;99.90
63537;DHT22;49686;51.880;5.632;2022-07-10T09:04:45;15.80;99.90
63537;DHT22;49686;51.880;5.632;2022-07-10T09:07:12;16.00;99.90
63537;DHT22;49686;51.880;5.632;2022-07-10T09:09:52;16.20;99.90
63537;DHT22;49686;51.880;5.632;2022-07-10T09:12:20;16.20;99.90
63537;DHT22;49686;51.880;5.632;2022-07-10T09:14:47;16.30;99.90
63537;DHT22;49686;51.880;5.632;2022-07-10T09:17:14;16.50;99.90
63537;DHT22;49686;51.880;5.632;2022-07-10T09:19:42;16.90;99.90
63537;DHT22;49686;51.880;5.632;2022-07-10T09:22:12;17.40;99.90
63537;DHT22;49686;51.880;5.632;2022-07-10T09:24:41;17.80;99.90
63537;DHT22;49686;51.880;5.632;2022-07-10T09:27:09;18.10;99.90
63537;DHT22;49686;51.880;5.632;2022-07-10T09:29:47;18.30;99.90
63537;DHT22;49686;51.880;5.632;2022-07-10T09:32:16;18.60;99.90
63537;DHT22;49686;51.880;5.632;2022-07-10T09:34:44;18.80;99.90
63537;DHT22;49686;51.880;5.632;2022-07-10T09:37:20;19.10;99.90
63537;DHT22;49686;51.880;5.632;2022-07-10T09:39:52;19.60;99.90
63537;DHT22;49686;51.880;5.632;2022-07-10T09:42:31;19.90;99.40
63537;DHT22;49686;51.880;5.632;2022-07-10T09:45:17;20.40;98.40
63537;DHT22;49686;51.880;5.632;2022-07-10T09:47:45;19.80;98.50
63537;DHT22;49686;51.880;5.632;2022-07-10T09:50:21;19.20;99.90
63537;DHT22;49686;51.880;5.632;2022-07-10T09:52:51;18.60;99.90
63537;DHT22;49686;51.880;5.632;2022-07-10T09:55:20;18.60;99.90
63537;DHT22;49686;51.880;5.632;2022-07-10T09:57:50;18.70;99.90
63537;DHT22;49686;51.880;5.632;2022-07-10T10:00:19;19.00;99.90
63537;DHT22;49686;51.880;5.632;2022-07-10T10:02:47;19.30;99.90
63537;DHT22;49686;51.880;5.632;2022-07-10T10:05:14;19.60;99.60
63537;DHT22;49686;51.880;5.632;2022-07-10T10:07:43;19.70;98.90
63537;DHT22;49686;51.880;5.632;2022-07-10T10:10:13;19.90;99.80
63537;DHT22;49686;51.880;5.632;2022-07-10T10:12:46;19.70;99.10
63537;DHT22;49686;51.880;5.632;2022-07-10T10:15:15;19.70;99.30
63537;DHT22;49686;51.880;5.632;2022-07-10T10:17:42;19.70;99.00
63537;DHT22;49686;51.880;5.632;2022-07-10T10:20:11;19.70;98.60
63537;DHT22;49686;51.880;5.632;2022-07-10T10:22:40;19.80;99.10
63537;DHT22;49686;51.880;5.632;2022-07-10T10:25:07;20.00;98.90
63537;DHT22;49686;51.880;5.632;2022-07-10T10:27:37;20.30;97.50
63537;DHT22;49686;51.880;5.632;2022-07-10T10:30:06;20.60;97.00
63537;DHT22;49686;51.880;5.632;2022-07-10T10:32:39;20.90;96.80
63537;DHT22;49686;51.880;5.632;2022-07-10T10:35:07;21.00;96.20
63537;DHT22;49686;51.880;5.632;2022-07-10T10:37:36;21.20;96.60
63537;DHT22;49686;51.880;5.632;2022-07-10T10:40:04;21.40;94.80
63537;DHT22;49686;51.880;5.632;2022-07-10T10:42:33;21.20;94.80
63537;DHT22;49686;51.880;5.632;2022-07-10T10:45:26;20.90;94.70
63537;DHT22;49686;51.880;5.632;2022-07-10T10:47:57;21.10;94.80
63537;DHT22;49686;51.880;5.632;2022-07-10T10:50:46;21.30;94.40
63537;DHT22;49686;51.880;5.632;2022-07-10T10:53:15;21.80;94.30
63537;DHT22;49686;51.880;5.632;2022-07-10T10:58:44;21.20;92.90
63537;DHT22;49686;51.880;5.632;2022-07-10T11:01:28;20.70;95.90
63537;DHT22;49686;51.880;5.632;2022-07-10T11:04:15;20.20;96.30
63537;DHT22;49686;51.880;5.632;2022-07-10T11:06:44;20.10;96.50
63537;DHT22;49686;51.880;5.632;2022-07-10T11:09:28;19.50;98.60
63537;DHT22;49686;51.880;5.632;2022-07-10T11:11:59;19.30;99.30
63537;DHT22;49686;51.880;5.632;2022-07-10T11:14:27;19.40;99.70
63537;DHT22;49686;51.880;5.632;2022-07-10T11:16:56;20.00;98.90
63537;DHT22;49686;51.880;5.632;2022-07-10T11:19:25;20.50;97.30
63537;DHT22;49686;51.880;5.632;2022-07-10T11:22:07;21.10;96.50
63537;DHT22;49686;51.880;5.632;2022-07-10T11:24:45;21.30;95.50
63537;DHT22;49686;51.880;5.632;2022-07-10T11:27:26;21.40;94.30
63537;DHT22;49686;51.880;5.632;2022-07-10T11:29:58;21.20;95.40
63537;DHT22;49686;51.880;5.632;2022-07-10T11:32:28;20.90;95.10
63537;DHT22;49686;51.880;5.632;2022-07-10T11:34:55;20.30;96.60
63537;DHT22;49686;51.880;5.632;2022-07-10T11:37:21;19.70;98.40
63537;DHT22;49686;51.880;5.632;2022-07-10T11:39:49;19.40;99.40
63537;DHT22;49686;51.880;5.632;2022-07-10T11:42:16;18.90;99.90
63537;DHT22;49686;51.880;5.632;2022-07-10T11:44:43;18.90;99.90
63537;DHT22;49686;51.880;5.632;2022-07-10T11:47:11;18.90;99.90
63537;DHT22;49686;51.880;5.632;2022-07-10T11:49:45;18.80;99.90
63537;DHT22;49686;51.880;5.632;2022-07-10T11:52:13;18.90;99.90
63537;DHT22;49686;51.880;5.632;2022-07-10T11:54:40;19.10;99.90
63537;DHT22;49686;51.880;5.632;2022-07-10T11:57:07;19.20;99.90
63537;DHT22;49686;51.880;5.632;2022-07-10T11:59:34;19.30;99.90
63537;DHT22;49686;51.880;5.632;2022-07-10T12:02:01;19.50;99.90
63537;DHT22;49686;51.880;5.632;2022-07-10T12:04:30;19.80;99.70
63537;DHT22;49686;51.880;5.632;2022-07-10T12:07:02;20.20;99.50
63537;DHT22;49686;51.880;5.632;2022-07-10T12:09:38;20.80;98.40
63537;DHT22;49686;51.880;5.632;2022-07-10T12:12:06;20.70;96.90
63537;DHT22;49686;51.880;5.632;2022-07-10T12:14:33;20.70;96.60
63537;DHT22;49686;51.880;5.632;2022-07-10T12:17:01;20.20;97.60
63537;DHT22;49686;51.880;5.632;2022-07-10T12:19:36;20.10;98.00
63537;DHT22;49686;51.880;5.632;2022-07-10T12:22:10;20.20;97.40
63537;DHT22;49686;51.880;5.632;2022-07-10T12:24:37;20.30;98.10
63537;DHT22;49686;51.880;5.632;2022-07-10T12:27:07;20.60;97.60
63537;DHT22;49686;51.880;5.632;2022-07-10T12:29:34;20.80;96.60
63537;DHT22;49686;51.880;5.632;2022-07-10T12:32:02;20.90;95.80
63537;DHT22;49686;51.880;5.632;2022-07-10T12:34:36;21.10;96.00
63537;DHT22;49686;51.880;5.632;2022-07-10T12:37:07;21.20;95.20
63537;DHT22;49686;51.880;5.632;2022-07-10T12:39:40;21.20;95.50
63537;DHT22;49686;51.880;5.632;2022-07-10T12:42:12;21.20;95.20
63537;DHT22;49686;51.880;5.632;2022-07-10T12:44:41;21.20;94.80
63537;DHT22;49686;51.880;5.632;2022-07-10T12:47:09;21.30;94.30
63537;DHT22;49686;51.880;5.632;2022-07-10T12:49:51;21.40;93.90
63537;DHT22;49686;51.880;5.632;2022-07-10T12:52:22;21.50;93.90
63537;DHT22;49686;51.880;5.632;2022-07-10T12:55:12;21.80;93.30
63537;DHT22;49686;51.880;5.632;2022-07-10T12:57:46;22.00;92.20
63537;DHT22;49686;51.880;5.632;2022-07-10T13:00:18;21.80;92.60
63537;DHT22;49686;51.880;5.632;2022-07-10T13:02:46;21.90;91.70
63537;DHT22;49686;51.880;5.632;2022-07-10T13:05:25;21.60;92.40
63537;DHT22;49686;51.880;5.632;2022-07-10T13:07:52;21.70;91.20
63537;DHT22;49686;51.880;5.632;2022-07-10T13:10:29;21.60;92.00
63537;DHT22;49686;51.880;5.632;2022-07-10T13:12:56;22.10;90.70
63537;DHT22;49686;51.880;5.632;2022-07-10T13:15:23;21.70;92.20
63537;DHT22;49686;51.880;5.632;2022-07-10T13:17:51;22.00;90.50
63537;DHT22;49686;51.880;5.632;2022-07-10T13:20:19;22.40;90.60
63537;DHT22;49686;51.880;5.632;2022-07-10T13:22:48;22.30;88.90
63537;DHT22;49686;51.880;5.632;2022-07-10T13:25:15;22.50;90.30
63537;DHT22;49686;51.880;5.632;2022-07-10T13:27:50;22.50;90.50
63537;DHT22;49686;51.880;5.632;2022-07-10T13:30:17;21.90;90.60
63537;DHT22;49686;51.880;5.632;2022-07-10T13:32:46;21.60;91.80
63537;DHT22;49686;51.880;5.632;2022-07-10T13:35:13;21.80;91.80
63537;DHT22;49686;51.880;5.632;2022-07-10T13:37:40;21.90;91.00
63537;DHT22;49686;51.880;5.632;2022-07-10T13:40:08;22.10;90.60
63537;DHT22;49686;51.880;5.632;2022-07-10T13:42:35;22.30;87.60
63537;DHT22;49686;51.880;5.632;2022-07-10T13:45:05;22.40;85.90
63537;DHT22;49686;51.880;5.632;2022-07-10T13:47:32;22.50;84.00
63537;DHT22;49686;51.880;5.632;2022-07-10T13:50:00;22.30;84.50
63537;DHT22;49686;51.880;5.632;2022-07-10T13:52:27;22.60;82.30
63537;DHT22;49686;51.880;5.632;2022-07-10T13:54:54;22.40;82.20
63537;DHT22;49686;51.880;5.632;2022-07-10T13:57:22;22.30;83.60
63537;DHT22;49686;51.880;5.632;2022-07-10T13:59:49;22.60;83.10
63537;DHT22;49686;51.880;5.632;2022-07-10T14:02:17;22.60;81.50
63537;DHT22;49686;51.880;5.632;2022-07-10T14:04:48;22.30;81.40
63537;DHT22;49686;51.880;5.632;2022-07-10T14:07:15;22.70;81.10
63537;DHT22;49686;51.880;5.632;2022-07-10T14:09:42;23.30;79.60
63537;DHT22;49686;51.880;5.632;2022-07-10T14:12:09;23.00;77.50
63537;DHT22;49686;51.880;5.632;2022-07-10T14:14:37;22.80;77.60
63537;DHT22;49686;51.880;5.632;2022-07-10T14:17:08;22.80;78.80
63537;DHT22;49686;51.880;5.632;2022-07-10T14:19:37;22.50;77.20
63537;DHT22;49686;51.880;5.632;2022-07-10T14:22:04;22.30;80.00
63537;DHT22;49686;51.880;5.632;2022-07-10T14:24:32;22.40;81.30
63537;DHT22;49686;51.880;5.632;2022-07-10T14:27:06;22.50;79.50
63537;DHT22;49686;51.880;5.632;2022-07-10T14:29:36;22.30;81.70
63537;DHT22;49686;51.880;5.632;2022-07-10T14:32:03;22.20;80.60
63537;DHT22;49686;51.880;5.632;2022-07-10T14:34:32;22.10;81.70
63537;DHT22;49686;51.880;5.632;2022-07-10T14:37:01;22.10;83.60
63537;DHT22;49686;51.880;5.632;2022-07-10T14:39:28;22.20;83.30
63537;DHT22;49686;51.880;5.632;2022-07-10T14:41:55;22.20;83.40
63537;DHT22;49686;51.880;5.632;2022-07-10T14:44:22;22.00;83.60
63537;DHT22;49686;51.880;5.632;2022-07-10T14:46:49;22.00;85.40
63537;DHT22;49686;51.880;5.632;2022-07-10T14:49:19;22.10;85.10
63537;DHT22;49686;51.880;5.632;2022-07-10T14:51:47;22.00;86.70
63537;DHT22;49686;51.880;5.632;2022-07-10T14:54:15;21.90;88.50
63537;DHT22;49686;51.880;5.632;2022-07-10T14:56:43;21.80;88.60
63537;DHT22;49686;51.880;5.632;2022-07-10T14:59:13;22.00;89.70
63537;DHT22;49686;51.880;5.632;2022-07-10T15:01:42;22.10;88.20
63537;DHT22;49686;51.880;5.632;2022-07-10T15:04:10;22.30;88.00
63537;DHT22;49686;51.880;5.632;2022-07-10T15:06:39;22.50;85.30
63537;DHT22;49686;51.880;5.632;2022-07-10T15:09:08;22.40;86.20
63537;DHT22;49686;51.880;5.632;2022-07-10T15:11:37;22.50;87.10
63537;DHT22;49686;51.880;5.632;2022-07-10T15:14:04;22.50;86.80
63537;DHT22;49686;51.880;5.632;2022-07-10T15:16:31;22.30;87.70
63537;DHT22;49686;51.880;5.632;2022-07-10T15:18:58;22.20;89.50
63537;DHT22;49686;51.880;5.632;2022-07-10T15:21:29;22.10;90.70
63537;DHT22;49686;51.880;5.632;2022-07-10T15:23:56;22.30;90.80
63537;DHT22;49686;51.880;5.632;2022-07-10T15:26:24;22.40;88.90
63537;DHT22;49686;51.880;5.632;2022-07-10T15:28:52;22.20;90.60
63537;DHT22;49686;51.880;5.632;2022-07-10T15:31:19;22.10;91.50
63537;DHT22;49686;51.880;5.632;2022-07-10T15:33:47;22.30;90.90
63537;DHT22;49686;51.880;5.632;2022-07-10T15:36:14;22.10;90.70
63537;DHT22;49686;51.880;5.632;2022-07-10T15:38:40;21.80;91.00
63537;DHT22;49686;51.880;5.632;2022-07-10T15:41:08;21.60;92.10